Time;durP1;ratioP1;P1;durP2;ratioP2;P2;SDS_P1;SDS_P2;PMS_P1;PMS_P2;Temp;Humidity;BMP_temperature;BMP_pressure;BME280_temperature;BME280_humidity;BME280_pressure;Samples;Min_cycle;Max_cycle;Signal;HPM_P1;HPM_P2
2022/12/19 04:31:58;;;;;;;20.70;10.70;;;;;;;-0.81;97.84;102893.64;106405;1294;548302;-58
2022/12/19 04:34:25;;;;;;;19.00;10.30;;;;;;;2.02;82.10;102887.30;106514;1299;21963;-57
2022/12/19 04:36:51;;;;;;;17.90;8.70;;;;;;;2.24;76.47;102884.38;106316;1299;22010;-57
2022/12/19 04:39:17;;;;;;;15.50;7.30;;;;;;;2.64;74.00;102884.20;106315;1300;21965;-58
2022/12/19 04:41:43;;;;;;;13.50;6.60;;;;;;;3.08;71.51;102890.10;106294;1300;21959;-59
2022/12/19 04:44:08;;;;;;;11.30;6.90;;;;;;;3.23;70.38;102893.08;106292;1298;396382;-58
2022/12/19 04:46:35;;;;;;;14.80;6.40;;;;;;;3.51;69.31;102904.36;106824;1287;22004;-59
2022/12/19 04:49:01;;;;;;;12.60;7.30;;;;;;;3.82;67.42;102903.83;106824;1300;21954;-60
2022/12/19 04:51:26;;;;;;;11.30;6.20;;;;;;;3.91;66.56;102902.45;106853;1295;21953;-57
2022/12/19 04:53:52;;;;;;;13.30;6.20;;;;;;;3.94;65.95;102902.27;106866;1298;21959;-57
2022/12/19 04:56:18;;;;;;;12.60;5.80;;;;;;;3.76;65.84;102909.44;106724;1297;21960;-57
2022/12/19 04:58:44;;;;;;;15.00;7.60;;;;;;;3.75;65.60;102914.06;106849;1297;21951;-57
2022/12/19 05:01:12;;;;;;;14.60;7.40;;;;;;;3.84;64.51;102917.70;106838;1297;21948;-58
2022/12/19 05:03:39;;;;;;;15.90;7.80;;;;;;;3.89;63.93;102917.42;106487;1289;21952;-58
2022/12/19 05:06:06;;;;;;;13.90;7.30;;;;;;;3.80;63.70;102923.33;106780;1297;21958;-57
2022/12/19 05:08:34;;;;;;;24.00;9.90;;;;;;;3.69;64.33;102925.86;106846;1297;21963;-59
2022/12/19 05:11:00;;;;;;;17.20;8.60;;;;;;;3.69;64.18;102918.76;106811;1297;21958;-57
2022/12/19 05:13:27;;;;;;;24.40;11.00;;;;;;;3.71;63.46;102916.47;106833;1298;21946;-59
2022/12/19 05:15:57;;;;;;;17.90;8.70;;;;;;;3.68;64.03;102922.19;106891;1298;23087;-57
2022/12/19 05:18:23;;;;;;;15.40;7.70;;;;;;;3.69;64.67;102924.52;106880;1297;21972;-57
2022/12/19 05:20:49;;;;;;;14.20;6.70;;;;;;;3.76;64.52;102928.67;106085;1298;1002608;-57
2022/12/19 05:23:15;;;;;;;12.70;6.60;;;;;;;3.79;64.26;102925.55;106086;1294;1002547;-57
2022/12/19 05:25:41;;;;;;;14.20;7.50;;;;;;;3.78;63.92;102929.36;106855;1297;21987;-57
2022/12/19 05:28:07;;;;;;;19.30;7.80;;;;;;;3.88;64.24;102928.67;106895;1297;22030;-56
2022/12/19 05:30:33;;;;;;;15.60;6.40;;;;;;;4.09;64.59;102927.79;106936;1297;21948;-58
2022/12/19 05:33:00;;;;;;;21.70;6.00;;;;;;;4.23;64.81;102932.35;106901;1297;21964;-58
2022/12/19 05:35:26;;;;;;;18.30;7.00;;;;;;;4.35;64.88;102937.86;106925;1298;21934;-57
2022/12/19 05:37:51;;;;;;;15.20;6.70;;;;;;;4.45;64.31;102942.88;106901;1294;21952;-57
2022/12/19 05:40:17;;;;;;;20.20;7.70;;;;;;;4.50;64.20;102945.61;106864;1297;21948;-58
2022/12/19 05:42:43;;;;;;;20.40;7.40;;;;;;;4.54;64.25;102951.71;106856;1297;21955;-59
2022/12/19 05:45:09;;;;;;;14.40;6.60;;;;;;;4.62;64.52;102948.14;106242;1297;1003466;-58
2022/12/19 05:47:35;;;;;;;22.20;7.20;;;;;;;4.68;64.44;102947.09;106871;1300;21974;-58
2022/12/19 05:50:00;;;;;;;28.60;7.70;;;;;;;4.80;64.62;102951.72;106865;1297;21959;-58
2022/12/19 05:52:27;;;;;;;16.50;7.00;;;;;;;4.90;64.68;102953.80;106886;1297;21951;-58
2022/12/19 05:54:52;;;;;;;17.50;6.10;;;;;;;4.98;64.38;102955.07;106882;1297;21960;-57
2022/12/19 05:57:18;;;;;;;16.00;7.30;;;;;;;5.05;64.05;102961.20;106893;1297;21960;-57
2022/12/19 05:59:44;;;;;;;13.90;6.10;;;;;;;5.10;64.06;102962.65;106885;1297;21962;-57
2022/12/19 06:02:10;;;;;;;7.60;4.20;;;;;;;4.87;64.64;102962.16;106885;1292;21944;-57
2022/12/19 06:04:36;;;;;;;15.30;6.00;;;;;;;4.65;65.50;102967.83;106891;1297;21964;-56
2022/12/19 06:07:02;;;;;;;12.90;5.80;;;;;;;4.66;65.92;102973.91;106901;1297;21963;-56
2022/12/19 06:09:28;;;;;;;9.60;4.80;;;;;;;4.69;66.34;102977.73;106946;1297;21949;-57
2022/12/19 06:11:54;;;;;;;11.90;5.40;;;;;;;4.65;66.39;102982.93;106877;1297;21969;-58
2022/12/19 06:14:20;;;;;;;8.80;4.70;;;;;;;4.59;67.00;102987.46;106930;1298;21969;-56
2022/12/19 06:16:46;;;;;;;10.80;5.70;;;;;;;4.61;67.27;102988.98;106780;1295;21948;-58
2022/12/19 06:19:13;;;;;;;8.80;4.60;;;;;;;4.62;66.79;102987.30;106111;1300;1002499;-57
2022/12/19 06:21:38;;;;;;;11.10;5.00;;;;;;;4.53;66.59;102988.73;106810;1297;21965;-58
2022/12/19 06:24:05;;;;;;;9.00;5.30;;;;;;;4.59;66.56;102997.03;106746;1291;21957;-58
2022/12/19 06:26:33;;;;;;;12.90;6.30;;;;;;;4.57;66.24;103006.17;106764;1298;21961;-57
2022/12/19 06:28:59;;;;;;;12.10;5.60;;;;;;;4.53;65.50;103008.54;106773;1300;21979;-57
2022/12/19 06:31:25;;;;;;;13.50;6.70;;;;;;;4.48;65.19;103008.09;106818;1296;22413;-58
2022/12/19 06:33:51;;;;;;;14.80;6.30;;;;;;;4.46;65.00;103012.70;106831;1292;21959;-58
2022/12/19 06:36:29;;;;;;;11.00;5.30;;;;;;;4.56;64.58;103017.41;106839;1297;21953;-58
2022/12/19 06:38:58;;;;;;;10.60;6.10;;;;;;;4.62;63.50;103014.59;106880;1298;22086;-58
2022/12/19 06:44:12;;;;;;;9.40;5.90;;;;;;;4.65;64.54;103021.05;106484;1300;21934;-57
2022/12/19 06:46:37;;;;;;;12.90;7.10;;;;;;;4.72;64.26;103021.20;106834;1298;23071;-58
2022/12/19 06:49:03;;;;;;;12.10;6.40;;;;;;;4.66;64.14;103017.77;106030;1298;1002295;-58
2022/12/19 06:51:29;;;;;;;13.00;6.60;;;;;;;4.69;64.63;103019.30;106771;1294;21954;-57
2022/12/19 06:53:55;;;;;;;12.40;6.40;;;;;;;4.85;64.56;103026.61;106853;1297;21980;-58
2022/12/19 06:56:21;;;;;;;12.40;6.20;;;;;;;5.00;64.28;103031.08;106822;1300;22016;-57
2022/12/19 10:38:57;;;;;;;11.60;6.30;;;;;;;6.33;74.96;103069.27;105299;1301;1002605;-58
2022/12/19 10:41:30;;;;;;;11.30;6.10;;;;;;;6.70;72.01;103058.84;106053;1303;21977;-57
2022/12/19 10:44:04;;;;;;;12.60;6.70;;;;;;;6.68;68.16;103056.48;105946;1303;21972;-57
2022/12/19 10:46:36;;;;;;;14.20;7.40;;;;;;;6.82;67.76;103057.13;105778;1303;338195;-58
2022/12/19 10:49:29;;;;;;;11.30;7.30;;;;;;;6.96;68.18;103062.84;106325;1303;23148;-57
2022/12/19 10:52:00;;;;;;;12.10;7.20;;;;;;;6.92;66.10;103063.38;106336;1302;21972;-58
2022/12/19 10:54:38;;;;;;;10.90;7.00;;;;;;;6.95;66.01;103058.58;105586;1303;1002132;-58
2022/12/19 10:57:27;;;;;;;13.90;7.20;;;;;;;6.90;64.11;103056.96;105629;1302;1003250;-58
2022/12/19 10:59:53;;;;;;;12.10;7.10;;;;;;;6.99;64.36;103054.92;106398;1301;21953;-58
2022/12/19 11:02:38;;;;;;;11.40;6.40;;;;;;;7.29;65.50;103052.95;106741;1301;21951;-57
2022/12/19 11:05:05;;;;;;;9.80;5.50;;;;;;;7.40;66.16;103054.31;106610;1298;22043;-57
2022/12/19 11:07:32;;;;;;;12.70;6.30;;;;;;;7.60;65.84;103050.80;106543;1292;21959;-58
2022/12/19 11:09:57;;;;;;;12.10;6.60;;;;;;;7.87;65.45;103044.75;106467;1300;21998;-58
2022/12/19 11:12:27;;;;;;;10.70;6.50;;;;;;;7.78;64.51;103044.75;106552;1298;21950;-58
2022/12/19 11:15:14;;;;;;;9.70;5.80;;;;;;;7.70;63.76;103042.98;106393;1301;21951;-58
2022/12/19 11:17:40;;;;;;;11.50;7.10;;;;;;;7.61;63.25;103047.36;106290;1300;21951;-57
2022/12/19 11:20:13;;;;;;;12.40;7.10;;;;;;;7.53;61.90;103048.77;106649;1301;21952;-58
2022/12/19 11:22:39;;;;;;;11.10;6.50;;;;;;;7.35;62.50;103046.55;106598;1301;21954;-58
2022/12/19 11:25:06;;;;;;;10.60;6.00;;;;;;;7.46;62.35;103047.05;106645;1300;21978;-57
2022/12/19 11:27:37;;;;;;;12.40;6.20;;;;;;;7.54;62.76;103045.12;106675;1301;21946;-58
2022/12/19 11:30:08;;;;;;;10.20;6.30;;;;;;;7.68;63.15;103038.52;106686;1300;21956;-59
2022/12/19 11:32:35;;;;;;;11.30;6.40;;;;;;;7.80;62.78;103043.95;106384;1301;23676;-59
2022/12/19 11:35:02;;;;;;;10.80;6.00;;;;;;;8.01;61.43;103045.52;106722;1301;21950;-58
2022/12/19 11:37:38;;;;;;;9.00;5.90;;;;;;;8.00;60.87;103044.77;106687;1301;21944;-58
2022/12/19 11:40:40;;;;;;;9.70;6.00;;;;;;;7.96;60.76;103042.66;106702;1301;22048;-58
2022/12/19 11:43:18;;;;;;;12.70;6.40;;;;;;;7.86;60.97;103043.14;106701;1301;21959;-58
2022/12/19 11:46:10;;;;;;;11.90;6.60;;;;;;;7.83;61.30;103047.41;106563;1299;21961;-58
2022/12/19 11:48:39;;;;;;;10.10;6.00;;;;;;;7.87;61.09;103044.40;106549;1301;21974;-58
2022/12/19 11:51:18;;;;;;;11.90;6.30;;;;;;;7.86;60.41;103044.02;106600;1301;21950;-58
2022/12/19 11:54:12;;;;;;;12.30;6.40;;;;;;;7.70;60.49;103049.30;106623;1301;21953;-58
2022/12/19 11:56:39;;;;;;;11.70;6.50;;;;;;;7.51;60.81;103047.77;106549;1299;21970;-59
2022/12/19 11:59:15;;;;;;;11.20;6.80;;;;;;;7.38;61.01;103046.36;106538;1301;21959;-58
2022/12/19 12:01:51;;;;;;;10.70;6.60;;;;;;;7.24;60.89;103043.80;106559;1301;21948;-59
2022/12/19 12:04:24;;;;;;;9.60;6.00;;;;;;;7.03;61.46;103046.54;106419;1303;21995;-59
2022/12/19 12:06:51;;;;;;;12.20;6.70;;;;;;;6.88;61.62;103050.11;106527;1292;22724;-59
2022/12/19 12:09:36;;;;;;;10.30;6.10;;;;;;;6.74;61.85;103045.95;106537;1301;21991;-58
2022/12/19 12:12:21;;;;;;;12.90;6.20;;;;;;;6.57;61.45;103042.40;106501;1301;21953;-59
2022/12/19 12:15:03;;;;;;;10.00;6.10;;;;;;;6.42;61.55;103045.34;106290;1301;21949;-59
2022/12/19 12:17:52;;;;;;;11.20;6.30;;;;;;;6.28;61.08;103050.23;106396;1300;21967;-58
2022/12/19 12:20:38;;;;;;;10.40;6.00;;;;;;;6.09;61.00;103053.69;106457;1300;21964;-59
2022/12/19 12:23:24;;;;;;;12.30;6.70;;;;;;;6.02;61.70;103052.14;106384;1300;21958;-59
2022/12/19 12:26:29;;;;;;;10.30;6.20;;;;;;;5.99;61.62;103053.88;106527;1301;21979;-58
2022/12/19 12:28:58;;;;;;;10.80;6.00;;;;;;;5.81;61.55;103061.54;106540;1301;21963;-58
2022/12/19 12:31:58;;;;;;;13.10;6.80;;;;;;;5.73;60.93;103068.79;106556;1301;21986;-59
2022/12/19 12:34:45;;;;;;;7.40;4.80;;;;;;;5.70;60.78;103069.50;106454;1300;21944;-58
2022/12/19 12:37:20;;;;;;;11.40;6.60;;;;;;;5.66;59.57;103073.48;106580;1300;22017;-59
2022/12/19 12:39:56;;;;;;;11.70;6.50;;;;;;;5.40;58.71;103074.95;106535;1301;21957;-58
2022/12/19 12:42:40;;;;;;;11.10;6.20;;;;;;;5.24;60.54;103079.34;106648;1296;21973;-58
2022/12/19 12:45:21;;;;;;;13.10;6.70;;;;;;;5.43;60.85;103076.11;106552;1297;21948;-58
2022/12/19 12:47:49;;;;;;;14.20;6.10;;;;;;;5.53;61.36;103077.71;105837;1300;1002727;-58
2022/12/19 12:50:16;;;;;;;12.70;6.60;;;;;;;5.61;61.67;103079.85;106395;1298;21964;-58
2022/12/19 12:52:58;;;;;;;11.70;6.20;;;;;;;5.67;60.65;103080.16;106458;1300;21954;-58
2022/12/19 12:55:39;;;;;;;11.70;5.60;;;;;;;5.71;60.87;103082.25;106523;1301;22006;-58
2022/12/19 12:58:09;;;;;;;12.60;6.40;;;;;;;5.72;61.30;103082.13;106610;1300;21971;-58
2022/12/19 13:00:35;;;;;;;;;;;;;;;5.78;61.48;103075.66;106647;1301;23443;-58
2022/12/19 13:03:16;;;;;;;12.30;6.00;;;;;;;5.77;61.65;103071.76;106382;1301;21950;-57
2022/12/19 13:05:44;;;;;;;11.40;6.20;;;;;;;5.84;62.11;103073.30;106574;1300;21976;-58
2022/12/19 13:08:30;;;;;;;14.70;6.40;;;;;;;5.91;61.48;103077.88;106547;1301;21951;-58
2022/12/19 13:10:58;;;;;;;11.60;6.60;;;;;;;5.89;60.85;103078.13;106563;1296;21992;-58
2022/12/19 13:13:53;;;;;;;16.10;7.40;;;;;;;5.77;60.96;103078.21;105840;1301;1002510;-59
2022/12/19 13:16:44;;;;;;;13.10;5.80;;;;;;;5.74;61.16;103075.63;106441;1301;22001;-59
2022/12/19 13:19:19;;;;;;;11.70;6.20;;;;;;;5.61;60.64;103077.23;106578;1301;22297;-58
2022/12/19 13:22:04;;;;;;;12.50;6.10;;;;;;;5.46;60.10;103079.61;106584;1300;21949;-58
2022/12/19 13:24:57;;;;;;;13.00;7.70;;;;;;;5.31;59.74;103085.75;106662;1300;21946;-58
2022/12/19 13:27:35;;;;;;;38.30;14.60;;;;;;;5.13;58.78;103095.29;105660;1300;1002506;-57
2022/12/19 13:30:06;;;;;;;26.60;13.00;;;;;;;5.10;59.26;103096.66;106360;1303;21963;-58
2022/12/19 13:32:38;;;;;;;17.30;9.70;;;;;;;4.99;58.82;103097.98;106551;1301;21953;-58
2022/12/19 13:35:10;;;;;;;16.90;9.20;;;;;;;4.90;59.37;103095.11;106437;1298;21921;-59
2022/12/19 13:37:43;;;;;;;14.50;8.90;;;;;;;4.96;59.65;103091.39;106554;1301;21948;-57
2022/12/19 13:40:26;;;;;;;14.50;7.70;;;;;;;5.04;59.82;103091.33;106576;1299;21962;-59
2022/12/19 13:45:56;;;;;;;174.50;83.50;;;;;;;5.12;59.80;103087.52;106525;1301;21959;-60
2022/12/19 13:48:39;;;;;;;68.90;37.10;;;;;;;5.07;59.19;103088.89;106551;1299;21949;-58
2022/12/19 13:51:07;;;;;;;40.20;25.10;;;;;;;5.04;59.38;103088.72;106552;1301;21955;-58
2022/12/19 13:53:33;;;;;;;25.40;16.80;;;;;;;5.00;59.10;103088.49;106499;1300;21955;-58
2022/12/19 13:56:04;;;;;;;22.20;14.90;;;;;;;4.95;58.89;103087.35;106483;1301;21960;-57
2022/12/19 13:58:32;;;;;;;15.90;10.90;;;;;;;4.85;58.71;103090.14;106550;1301;21965;-59
2022/12/19 14:01:03;;;;;;;20.60;12.70;;;;;;;4.69;58.93;103093.93;106591;1301;23071;-57
2022/12/19 14:03:36;;;;;;;20.90;12.30;;;;;;;4.51;58.92;103095.89;106556;1301;24901;-58
2022/12/19 14:06:25;;;;;;;21.70;12.30;;;;;;;4.35;59.24;103097.44;106525;1300;21947;-58
2022/12/19 14:08:52;;;;;;;16.60;11.10;;;;;;;4.33;59.95;103096.98;106411;1299;21972;-58
2022/12/19 14:11:19;;;;;;;16.90;9.20;;;;;;;4.34;59.93;103092.32;105749;1300;1002081;-58
2022/12/19 14:16:38;;;;;;;17.50;8.40;;;;;;;4.11;59.70;103098.69;106448;1300;21968;-58
2022/12/19 14:19:21;;;;;;;14.70;7.90;;;;;;;4.08;60.09;103102.48;106456;1300;21951;-59
2022/12/19 14:21:47;;;;;;;16.60;9.00;;;;;;;4.04;59.85;103103.48;106475;1300;21955;-58
2022/12/19 14:24:23;;;;;;;14.10;8.00;;;;;;;4.01;59.86;103100.71;106646;1301;21957;-58
2022/12/19 14:26:55;;;;;;;17.30;8.50;;;;;;;3.98;59.96;103105.61;106688;1300;21958;-58
2022/12/19 14:29:26;;;;;;;17.90;11.10;;;;;;;3.97;59.78;103110.71;106520;1301;21998;-58
2022/12/19 14:31:53;;;;;;;15.90;10.10;;;;;;;3.95;59.16;103114.79;106408;1301;21952;-58
2022/12/19 14:34:21;;;;;;;16.20;10.00;;;;;;;3.82;58.79;103116.45;106201;1303;21994;-58
2022/12/19 14:36:51;;;;;;;14.10;9.20;;;;;;;3.72;58.67;103117.06;105727;1303;1002889;-58
2022/12/19 14:39:19;;;;;;;14.60;9.50;;;;;;;3.58;58.35;103124.94;105755;1301;1002774;-57
2022/12/19 14:44:47;;;;;;;16.80;9.20;;;;;;;3.38;58.47;103133.45;106454;1301;21961;-59
2022/12/19 14:47:34;;;;;;;19.20;12.50;;;;;;;3.31;58.44;103139.12;106424;1301;21961;-58
2022/12/19 14:50:01;;;;;;;17.00;10.40;;;;;;;3.25;58.62;103145.34;105797;1298;1002432;-58
2022/12/19 14:52:32;;;;;;;18.00;9.60;;;;;;;3.20;58.62;103145.91;106505;1301;21960;-59
2022/12/19 14:55:20;;;;;;;15.90;9.00;;;;;;;3.07;58.56;103151.64;106617;1301;21954;-59
2022/12/19 14:57:49;;;;;;;20.40;12.30;;;;;;;3.05;58.82;103145.33;106361;1301;21971;-58
2022/12/19 15:00:29;;;;;;;21.10;13.60;;;;;;;3.04;58.89;103143.16;106446;1301;21982;-58
2022/12/19 15:02:55;;;;;;;;;;;;;;;3.04;58.81;103149.56;106501;1301;21979;-58
2022/12/19 15:05:22;;;;;;;28.70;17.60;;;;;;;3.03;58.94;103154.02;106597;1296;21966;-58
2022/12/19 15:07:49;;;;;;;15.70;9.80;;;;;;;3.02;58.65;103153.64;106515;1301;22413;-59
2022/12/19 15:10:37;;;;;;;14.60;10.10;;;;;;;3.01;58.77;103148.65;106433;1301;21953;-58
2022/12/19 15:13:18;;;;;;;16.90;10.00;;;;;;;2.90;58.99;103148.48;106372;1301;21954;-58
2022/12/19 15:15:55;;;;;;;19.70;9.90;;;;;;;2.83;58.94;103150.84;106399;1301;21958;-58
2022/12/19 15:18:26;;;;;;;14.80;8.90;;;;;;;2.68;59.21;103150.92;106399;1301;21955;-58
2022/12/19 15:20:55;;;;;;;18.00;10.00;;;;;;;2.53;59.64;103156.56;105786;1300;1006247;-58
2022/12/19 15:23:21;;;;;;;21.00;10.30;;;;;;;2.47;59.52;103150.45;106647;1301;21956;-58
2022/12/19 15:25:47;;;;;;;18.80;11.70;;;;;;;2.42;59.58;103149.73;106526;1301;22013;-58
2022/12/19 15:28:46;;;;;;;15.70;8.40;;;;;;;2.38;59.70;103152.86;106587;1300;21998;-59
2022/12/19 15:31:19;;;;;;;18.60;10.40;;;;;;;2.38;59.67;103153.17;106419;1296;21969;-58
2022/12/19 15:33:44;;;;;;;17.40;9.50;;;;;;;2.36;59.38;103148.73;106540;1301;21960;-58
2022/12/19 15:36:10;;;;;;;16.40;9.00;;;;;;;2.36;59.51;103144.86;106561;1301;21950;-58
2022/12/19 15:38:35;;;;;;;14.60;8.30;;;;;;;2.30;59.65;103140.48;105845;1301;1002664;-59
2022/12/19 15:41:02;;;;;;;17.60;8.70;;;;;;;2.27;59.58;103139.41;106514;1300;21950;-58
2022/12/19 15:43:28;;;;;;;21.50;11.10;;;;;;;2.24;59.41;103137.69;106233;1300;23469;-59
2022/12/19 15:45:56;;;;;;;27.00;13.50;;;;;;;2.17;59.45;103137.42;105648;1303;1002370;-58
2022/12/19 15:48:22;;;;;;;22.60;13.10;;;;;;;2.14;59.62;103135.86;105713;1301;1002956;-58
2022/12/19 15:50:48;;;;;;;25.00;13.60;;;;;;;2.15;59.84;103139.48;106305;1301;21952;-59
2022/12/19 15:53:26;;;;;;;21.50;12.30;;;;;;;2.15;59.90;103143.12;106483;1301;21953;-59
2022/12/19 21:22:51;;;;;;;20.80;9.90;;;;;;;-4.59;99.39;103144.09;105330;1310;557776;-59
2022/12/19 21:25:18;;;;;;;23.00;10.90;;;;;;;-2.53;87.53;103123.80;105529;1306;21989;-59
2022/12/19 21:27:45;;;;;;;21.20;12.00;;;;;;;-2.07;79.05;103117.17;105495;1310;21959;-60
2022/12/19 21:30:11;;;;;;;25.00;12.80;;;;;;;-1.85;75.37;103117.95;105566;1310;22135;-58
2022/12/19 21:32:37;;;;;;;25.50;12.60;;;;;;;-1.82;73.98;103117.65;104779;1302;1002597;-59
2022/12/19 21:35:04;;;;;;;23.30;12.00;;;;;;;-1.76;72.80;103116.80;104569;1310;1003068;-59
2022/12/19 21:37:30;;;;;;;22.70;11.80;;;;;;;-1.66;71.96;103115.14;105666;1310;21959;-59
2022/12/19 21:39:57;;;;;;;20.40;11.20;;;;;;;-1.55;71.24;103109.89;105650;1310;21983;-59
2022/12/19 21:42:23;;;;;;;19.10;10.80;;;;;;;-1.47;70.70;103110.70;105565;1309;21962;-60
2022/12/19 21:44:49;;;;;;;15.20;8.30;;;;;;;-1.30;70.65;103109.91;104884;1310;1003217;-59
2022/12/19 21:47:16;;;;;;;11.80;7.50;;;;;;;-1.22;70.27;103109.08;105574;1309;21958;-59
2022/12/19 21:49:42;;;;;;;13.90;7.60;;;;;;;-1.18;69.47;103107.30;105700;1309;22004;-59
2022/12/19 21:52:09;;;;;;;18.00;8.10;;;;;;;-1.17;68.74;103109.42;105587;1310;21959;-59
2022/12/19 21:54:36;;;;;;;17.10;8.80;;;;;;;-1.15;68.32;103113.21;105584;1309;21971;-60
2022/12/19 21:57:01;;;;;;;17.20;8.20;;;;;;;-1.12;68.08;103118.63;105589;1310;21999;-60
2022/12/19 21:59:30;;;;;;;16.70;8.30;;;;;;;-1.00;67.78;103119.41;105814;1310;22048;-59
2022/12/19 22:01:56;;;;;;;12.80;6.60;;;;;;;-0.78;67.46;103115.20;105706;1309;21966;-59
2022/12/19 22:04:23;;;;;;;14.00;7.20;;;;;;;-0.69;67.37;103116.77;105671;1310;21956;-58
2022/12/19 22:06:49;;;;;;;16.20;8.90;;;;;;;-0.64;67.05;103119.95;105738;1310;21972;-60
2022/12/19 22:09:17;;;;;;;14.10;7.70;;;;;;;-0.55;66.67;103115.76;105750;1309;21969;-60
2022/12/19 22:11:43;;;;;;;15.30;7.90;;;;;;;-0.53;66.05;103115.64;105683;1309;21973;-60
2022/12/19 22:14:10;;;;;;;16.80;9.10;;;;;;;-0.58;65.48;103112.65;105764;1309;21961;-60
2022/12/19 22:16:35;;;;;;;17.80;8.70;;;;;;;-0.62;65.17;103112.84;105644;1303;22885;-59
2022/12/19 22:19:02;;;;;;;19.70;9.00;;;;;;;-0.66;65.10;103111.33;105669;1309;21975;-59
2022/12/19 22:21:28;;;;;;;15.10;8.30;;;;;;;-0.72;65.69;103110.89;105969;1307;21956;-59
2022/12/19 22:23:58;;;;;;;17.30;9.70;;;;;;;-0.73;65.93;103119.45;105885;1306;22010;-60
2022/12/19 22:26:24;;;;;;;;;;;;;;;-0.64;65.59;103119.05;105927;1306;21942;-60
2022/12/19 22:28:51;;;;;;;22.80;10.60;;;;;;;-0.54;64.85;103118.78;105861;1307;21965;-60
2022/12/19 22:31:25;;;;;;;17.40;9.20;;;;;;;-0.53;64.52;103116.98;105771;1307;21969;-59
2022/12/19 22:33:53;;;;;;;19.80;10.40;;;;;;;-0.52;64.33;103115.66;106017;1304;21960;-58
2022/12/19 22:36:22;;;;;;;20.30;9.70;;;;;;;-0.33;63.96;103115.39;105989;1305;21960;-59
2022/12/19 22:38:48;;;;;;;21.30;11.10;;;;;;;-0.32;64.19;103114.05;105969;1307;22041;-58
2022/12/19 22:41:15;;;;;;;18.90;10.80;;;;;;;-0.32;64.24;103110.46;105874;1307;21942;-61
